createdAt,value
2023-05-14T00:00:55.260Z,12.37
2023-05-14T00:03:21.888Z,12.43
2023-05-14T00:05:48.655Z,12.32
2023-05-14T00:08:15.429Z,12.37
2023-05-14T00:10:42.032Z,12.36
2023-05-14T00:13:08.739Z,12.35
2023-05-14T00:15:35.392Z,12.34
2023-05-14T00:18:02.188Z,12.36
2023-05-14T00:20:28.977Z,12.33
2023-05-14T00:22:55.720Z,12.47
2023-05-14T00:25:22.368Z,12.47
2023-05-14T00:27:48.975Z,12.41
2023-05-14T00:30:15.605Z,12.29
2023-05-14T00:32:42.224Z,12.46
2023-05-14T00:35:09.398Z,12.38
2023-05-14T00:37:36.479Z,12.38
2023-05-14T00:40:03.833Z,12.15
2023-05-14T00:42:30.466Z,12.27
2023-05-14T00:44:57.080Z,12.22
2023-05-14T00:47:24.036Z,12.23
2023-05-14T00:49:50.753Z,12.15
2023-05-14T00:52:18.128Z,12.15
2023-05-14T00:54:47.047Z,12.10
2023-05-14T00:57:13.856Z,12.13
2023-05-14T00:59:41.836Z,11.98
2023-05-14T01:02:08.563Z,12.20
2023-05-14T01:04:35.409Z,12.18
2023-05-14T01:07:20.198Z,12.31
2023-05-14T01:10:08.416Z,12.24
2023-05-14T01:12:59.592Z,12.31
2023-05-14T01:15:30.818Z,12.35
2023-05-14T01:18:01.867Z,12.26
2023-05-14T01:20:28.509Z,12.03
2023-05-14T01:22:55.188Z,11.86
2023-05-14T01:25:21.890Z,12.06
2023-05-14T01:28:09.439Z,12.28
2023-05-14T01:30:38.188Z,12.32
2023-05-14T01:33:12.008Z,12.24
2023-05-14T01:35:40.290Z,12.13
2023-05-14T01:38:09.680Z,12.27
2023-05-14T01:40:37.123Z,12.36
2023-05-14T01:43:05.074Z,12.30
2023-05-14T01:45:35.372Z,12.24
2023-05-14T01:48:02.322Z,12.24
2023-05-14T01:50:29.006Z,12.25
2023-05-14T01:52:56.809Z,12.17
2023-05-14T01:55:26.973Z,12.15
2023-05-14T01:57:54.176Z,12.05
2023-05-14T02:00:24.020Z,12.12
2023-05-14T02:02:50.964Z,12.29
2023-05-14T02:05:17.752Z,12.41
2023-05-14T02:07:44.603Z,12.24
2023-05-14T02:10:11.432Z,12.32
2023-05-14T02:12:38.226Z,12.53
2023-05-14T02:15:05.200Z,12.59
2023-05-14T02:17:31.879Z,12.47
2023-05-14T02:19:58.517Z,12.37
2023-05-14T02:22:25.163Z,12.47
2023-05-14T02:24:51.890Z,12.61
2023-05-14T02:27:18.657Z,12.55
2023-05-14T02:29:45.242Z,12.55
2023-05-14T02:32:11.931Z,12.33
2023-05-14T02:34:38.761Z,12.47
2023-05-14T02:37:05.669Z,12.56
2023-05-14T02:39:32.333Z,12.48
2023-05-14T02:41:59.076Z,12.31
2023-05-14T02:44:25.712Z,12.34
2023-05-14T02:46:52.352Z,12.57
2023-05-14T02:49:18.989Z,12.72
2023-05-14T02:51:45.696Z,12.81
2023-05-14T02:54:12.324Z,12.63
2023-05-14T02:56:38.948Z,12.67
2023-05-14T02:59:05.719Z,12.69
2023-05-14T03:01:32.832Z,12.64
2023-05-14T03:03:59.800Z,12.46
2023-05-14T03:06:26.525Z,12.41
2023-05-14T03:08:53.185Z,12.38
2023-05-14T03:11:19.811Z,12.14
2023-05-14T03:13:46.636Z,12.26
2023-05-14T03:16:13.390Z,12.07
2023-05-14T03:18:40.152Z,11.97
2023-05-14T03:21:06.815Z,11.92
2023-05-14T03:23:35.057Z,12.00
2023-05-14T03:26:02.290Z,11.97
2023-05-14T03:28:28.969Z,12.08
2023-05-14T03:30:55.810Z,12.40
2023-05-14T03:33:22.896Z,12.43
2023-05-14T03:35:49.540Z,12.61
2023-05-14T03:38:16.393Z,12.58
2023-05-14T03:40:45.279Z,12.71
2023-05-14T03:43:11.925Z,12.83
2023-05-14T03:45:38.824Z,12.94
2023-05-14T03:48:05.945Z,13.03
2023-05-14T03:50:32.692Z,13.06
2023-05-14T03:52:59.344Z,12.89
2023-05-14T03:55:25.973Z,12.61
2023-05-14T03:57:52.748Z,12.86
2023-05-14T04:00:19.647Z,12.91
2023-05-14T04:02:46.376Z,12.67
2023-05-14T04:05:13.015Z,12.64
2023-05-14T04:07:39.667Z,12.45
2023-05-14T04:10:06.943Z,12.19
2023-05-14T04:12:33.560Z,11.93
2023-05-14T04:15:00.229Z,11.96
2023-05-14T04:17:27.069Z,12.09
2023-05-14T04:19:53.752Z,12.34
2023-05-14T04:22:20.447Z,12.37
2023-05-14T04:24:47.078Z,12.37
2023-05-14T04:27:23.738Z,12.62
2023-05-14T04:29:50.705Z,12.67
2023-05-14T04:32:18.141Z,12.58
2023-05-14T04:34:45.053Z,12.43
2023-05-14T04:37:11.716Z,12.60
2023-05-14T04:39:38.573Z,12.62
2023-05-14T04:42:06.806Z,12.65
2023-05-14T04:44:34.954Z,12.69
2023-05-14T04:47:02.231Z,12.62
2023-05-14T04:49:29.201Z,12.59
2023-05-14T04:51:55.928Z,12.71
2023-05-14T04:54:22.764Z,12.61
2023-05-14T04:56:50.825Z,12.64
2023-05-14T04:59:17.445Z,12.72
2023-05-14T05:01:44.251Z,12.75
2023-05-14T05:04:11.005Z,12.68
2023-05-14T05:06:37.736Z,12.42
2023-05-14T05:09:04.649Z,12.25
2023-05-14T05:11:31.252Z,12.14
2023-05-14T05:13:57.852Z,12.12
2023-05-14T05:16:24.475Z,12.09
2023-05-14T05:18:51.179Z,12.08
2023-05-14T05:21:17.889Z,12.43
2023-05-14T05:23:44.461Z,12.32
2023-05-14T05:26:11.070Z,12.28
2023-05-14T05:28:37.679Z,12.42
2023-05-14T05:31:04.445Z,12.30
2023-05-14T05:33:31.207Z,12.10
2023-05-14T05:35:57.792Z,12.26
2023-05-14T05:38:24.441Z,12.57
2023-05-14T05:40:51.164Z,12.57
2023-05-14T05:43:18.092Z,12.60
2023-05-14T05:45:46.041Z,12.67
2023-05-14T05:48:12.798Z,12.84
2023-05-14T05:50:39.427Z,12.87
2023-05-14T05:53:06.059Z,12.74
2023-05-14T05:55:32.713Z,12.86
2023-05-14T05:57:59.383Z,12.95
2023-05-14T06:00:26.285Z,12.83
2023-05-14T06:02:53.229Z,12.93
2023-05-14T06:05:20.064Z,12.87
2023-05-14T06:07:46.719Z,13.04
2023-05-14T06:10:13.338Z,12.88
2023-05-14T06:12:40.498Z,12.92
2023-05-14T06:15:07.665Z,12.93
2023-05-14T06:17:34.433Z,12.88
2023-05-14T06:20:01.053Z,12.98
2023-05-14T06:22:27.695Z,12.72
2023-05-14T06:24:54.312Z,12.96
2023-05-14T06:27:21.005Z,13.02
2023-05-14T06:29:47.597Z,13.24
2023-05-14T06:32:15.747Z,13.38
2023-05-14T06:34:42.923Z,13.14
2023-05-14T06:37:10.552Z,13.25
2023-05-14T06:39:37.949Z,13.36
2023-05-14T06:42:05.136Z,13.40
2023-05-14T06:44:31.989Z,13.54
2023-05-14T06:46:58.618Z,13.24
2023-05-14T06:49:25.305Z,12.81
2023-05-14T06:51:52.365Z,12.82
2023-05-14T06:54:20.517Z,12.82
2023-05-14T06:56:47.256Z,12.59
2023-05-14T06:59:13.934Z,12.79
2023-05-14T07:01:41.052Z,12.97
2023-05-14T07:04:07.970Z,12.76
2023-05-14T07:06:34.876Z,12.41
2023-05-14T07:09:01.996Z,11.94
2023-05-14T07:11:28.761Z,12.10
2023-05-14T07:13:55.593Z,12.24
2023-05-14T07:16:22.342Z,12.29
2023-05-14T07:18:49.000Z,12.44
2023-05-14T07:21:15.733Z,12.62
2023-05-14T07:23:42.371Z,12.95
2023-05-14T07:26:09.063Z,12.68
2023-05-14T07:28:35.845Z,12.25
2023-05-14T07:31:05.050Z,12.09
2023-05-14T07:33:31.825Z,12.58
2023-05-14T07:35:58.626Z,12.73
2023-05-14T07:38:25.392Z,12.74
2023-05-14T07:40:52.017Z,12.64
2023-05-14T07:43:18.660Z,12.53
2023-05-14T07:45:45.641Z,12.45
2023-05-14T07:48:12.376Z,12.31
2023-05-14T07:50:40.490Z,12.34
2023-05-14T07:53:07.087Z,12.61
2023-05-14T07:55:33.760Z,12.48
2023-05-14T07:58:01.240Z,12.64
2023-05-14T08:00:27.976Z,12.88
2023-05-14T08:02:55.759Z,13.26
2023-05-14T08:05:22.656Z,13.34
2023-05-14T08:07:49.351Z,13.32
2023-05-14T08:10:15.961Z,13.46
2023-05-14T08:12:42.903Z,13.53
2023-05-14T08:15:09.974Z,13.65
2023-05-14T08:17:36.666Z,13.64
2023-05-14T08:20:03.573Z,13.61
2023-05-14T08:22:30.162Z,13.41
2023-05-14T08:24:56.817Z,13.50
2023-05-14T08:27:23.419Z,13.33
2023-05-14T08:29:50.087Z,13.53
2023-05-14T08:32:23.478Z,13.37
2023-05-14T08:34:51.861Z,13.24
2023-05-14T08:37:18.696Z,13.19
2023-05-14T08:39:45.396Z,13.41
2023-05-14T08:42:13.788Z,13.39
2023-05-14T08:44:50.142Z,13.09
2023-05-14T08:47:20.886Z,13.18
2023-05-14T08:49:52.584Z,13.52
2023-05-14T08:52:22.394Z,13.67
2023-05-14T08:54:51.152Z,13.21
2023-05-14T08:57:20.245Z,12.95
2023-05-14T08:59:47.363Z,12.68
2023-05-14T09:02:17.415Z,12.48
2023-05-14T09:04:44.939Z,12.51
2023-05-14T09:07:12.006Z,13.09
2023-05-14T09:09:38.826Z,13.26
2023-05-14T09:12:06.411Z,13.48
2023-05-14T09:14:33.496Z,13.51
2023-05-14T09:17:00.178Z,13.55
2023-05-14T09:19:27.076Z,13.72
2023-05-14T09:21:58.294Z,13.91
2023-05-14T09:24:29.086Z,13.99
2023-05-14T09:26:59.022Z,14.02
2023-05-14T09:29:26.583Z,14.07
2023-05-14T09:31:54.457Z,14.00
2023-05-14T09:34:25.333Z,14.15
2023-05-14T09:37:03.117Z,14.30
2023-05-14T09:39:30.725Z,14.25
2023-05-14T09:41:57.844Z,14.27
2023-05-14T09:44:25.665Z,14.54
2023-05-14T09:46:53.467Z,14.62
2023-05-14T09:49:20.952Z,14.87
2023-05-14T09:51:49.604Z,14.99
2023-05-14T09:54:16.877Z,15.25
2023-05-14T09:56:44.678Z,15.42
2023-05-14T09:59:11.496Z,15.39
2023-05-14T10:01:38.689Z,15.55
2023-05-14T10:04:08.033Z,15.14
2023-05-14T10:06:38.190Z,14.63
2023-05-14T10:09:09.971Z,14.91
2023-05-14T10:11:38.656Z,14.78
2023-05-14T10:14:09.353Z,14.73
2023-05-14T10:16:40.701Z,15.13
2023-05-14T10:19:12.036Z,15.11
2023-05-14T10:21:41.334Z,14.57
2023-05-14T10:24:09.468Z,14.53
2023-05-14T10:26:39.338Z,14.71
2023-05-14T10:29:08.368Z,14.96
2023-05-14T10:31:53.752Z,15.12
2023-05-14T10:34:38.273Z,15.33
2023-05-14T10:37:08.009Z,15.53
2023-05-14T10:39:41.515Z,15.17
2023-05-14T10:42:17.065Z,15.18
2023-05-14T10:45:02.856Z,15.00
2023-05-14T10:47:29.890Z,15.21
2023-05-14T10:49:59.445Z,15.43
2023-05-14T10:52:26.743Z,15.71
2023-05-14T10:54:55.969Z,15.78
2023-05-14T10:57:24.656Z,15.88
2023-05-14T10:59:56.790Z,15.87
2023-05-14T11:02:35.800Z,15.83
2023-05-14T11:05:15.836Z,15.82
2023-05-14T11:07:45.257Z,15.89
2023-05-14T11:10:16.988Z,15.89
2023-05-14T11:12:46.126Z,15.98
2023-05-14T11:15:16.473Z,16.03
2023-05-14T11:17:44.876Z,16.03
2023-05-14T11:20:12.170Z,16.17
2023-05-14T11:22:40.105Z,16.20
2023-05-14T11:25:07.802Z,16.09
2023-05-14T11:27:36.831Z,16.04
2023-05-14T11:30:04.096Z,16.24
2023-05-14T11:32:34.121Z,16.15
2023-05-14T11:35:00.875Z,16.23
2023-05-14T11:37:27.481Z,16.20
2023-05-14T11:39:55.972Z,16.11
2023-05-14T11:42:23.735Z,15.89
2023-05-14T11:44:52.046Z,15.44
2023-05-14T11:47:20.562Z,14.98
2023-05-14T11:49:48.617Z,14.75
2023-05-14T11:52:16.417Z,14.70
2023-05-14T11:54:44.419Z,14.55
2023-05-14T11:57:13.278Z,14.71
2023-05-14T11:59:40.322Z,14.68
2023-05-14T12:02:18.799Z,14.57
2023-05-14T12:04:50.722Z,14.59
2023-05-14T12:07:17.477Z,14.70
2023-05-14T12:09:49.416Z,14.94
2023-05-14T12:12:21.925Z,15.06
2023-05-14T12:14:49.633Z,14.95
2023-05-14T12:17:18.820Z,14.95
2023-05-14T12:19:47.561Z,14.97
2023-05-14T12:22:17.561Z,14.87
2023-05-14T12:24:52.509Z,14.81
2023-05-14T12:27:22.487Z,14.58
2023-05-14T12:29:49.221Z,14.33
2023-05-14T12:32:15.916Z,14.54
2023-05-14T12:34:42.794Z,14.41
2023-05-14T12:37:09.447Z,14.39
2023-05-14T12:39:36.222Z,14.26
2023-05-14T12:42:02.882Z,14.30
2023-05-14T12:44:29.582Z,14.10
2023-05-14T12:46:56.385Z,14.20
2023-05-14T12:49:23.116Z,13.98
2023-05-14T12:51:52.609Z,13.93
2023-05-14T12:54:23.445Z,14.02
2023-05-14T12:56:50.460Z,13.91
2023-05-14T12:59:17.125Z,13.86
2023-05-14T13:01:43.759Z,13.72
2023-05-14T13:04:13.900Z,13.76
2023-05-14T13:06:40.962Z,13.58
2023-05-14T13:09:08.812Z,13.50
2023-05-14T13:11:35.848Z,13.57
2023-05-14T13:14:03.161Z,13.38
2023-05-14T13:16:30.314Z,13.26
2023-05-14T13:18:57.112Z,13.30
2023-05-14T13:21:23.868Z,13.35
2023-05-14T13:23:50.748Z,13.15
2023-05-14T13:26:17.474Z,13.40
2023-05-14T13:28:44.696Z,13.42
2023-05-14T13:31:13.164Z,13.44
2023-05-14T13:33:44.653Z,13.37
2023-05-14T13:36:13.592Z,13.27
2023-05-14T13:38:40.603Z,13.30
2023-05-14T13:41:07.289Z,13.30
2023-05-14T13:43:35.353Z,13.06
2023-05-14T13:46:03.281Z,13.10
2023-05-14T13:48:31.114Z,13.26
2023-05-14T13:50:57.959Z,13.15
2023-05-14T13:53:25.438Z,12.86
2023-05-14T13:55:58.595Z,12.96
2023-05-14T13:58:25.717Z,12.96
2023-05-14T14:00:52.843Z,12.93
2023-05-14T14:03:19.884Z,13.02
2023-05-14T14:05:46.560Z,12.85
2023-05-14T14:10:48.595Z,12.71
2023-05-14T14:13:15.371Z,12.66
2023-05-14T14:15:42.714Z,12.74
2023-05-14T14:18:09.357Z,12.71
2023-05-14T14:20:36.339Z,12.84
2023-05-14T14:23:02.992Z,12.79
2023-05-14T14:25:29.607Z,12.81
2023-05-14T14:27:56.380Z,12.71
2023-05-14T14:30:22.972Z,12.84
2023-05-14T14:32:50.021Z,12.89
2023-05-14T14:35:18.174Z,12.83
2023-05-14T14:37:49.083Z,12.68
2023-05-14T14:40:16.711Z,12.79
2023-05-14T14:42:44.070Z,12.62
2023-05-14T14:45:11.655Z,12.49
2023-05-14T14:47:38.517Z,12.55
2023-05-14T14:50:06.255Z,12.58
2023-05-14T14:52:33.121Z,12.38
2023-05-14T14:54:59.720Z,12.30
2023-05-14T14:57:26.900Z,12.28
2023-05-14T14:59:53.590Z,12.37
2023-05-14T15:02:20.358Z,12.42
2023-05-14T15:04:47.002Z,12.51
2023-05-14T15:07:15.951Z,12.52
2023-05-14T15:09:42.692Z,12.35
2023-05-14T15:12:10.877Z,12.39
2023-05-14T15:14:37.554Z,12.55
2023-05-14T15:17:04.499Z,12.47
2023-05-14T15:19:32.362Z,12.31
2023-05-14T15:21:59.134Z,12.36
2023-05-14T15:24:26.278Z,12.32
2023-05-14T15:26:53.780Z,12.27
2023-05-14T15:29:20.569Z,12.45
2023-05-14T15:31:47.449Z,12.25
2023-05-14T15:34:14.199Z,12.31
2023-05-14T15:36:40.971Z,12.15
2023-05-14T15:39:10.314Z,12.30
2023-05-14T15:41:38.056Z,12.26
2023-05-14T15:44:04.961Z,12.23
2023-05-14T15:46:32.279Z,12.26
2023-05-14T15:48:58.917Z,12.20
2023-05-14T15:51:25.593Z,12.37
2023-05-14T15:53:54.216Z,12.30
2023-05-14T15:56:23.226Z,12.32
2023-05-14T15:58:49.985Z,12.18
2023-05-14T16:01:17.019Z,12.07
2023-05-14T16:03:43.846Z,12.08
2023-05-14T16:06:11.599Z,12.06
2023-05-14T16:08:38.647Z,11.90
2023-05-14T16:11:06.405Z,12.01
2023-05-14T16:13:33.810Z,12.15
2023-05-14T16:16:01.294Z,11.98
2023-05-14T16:18:28.055Z,12.00
2023-05-14T16:20:54.745Z,11.93
2023-05-14T16:23:21.633Z,12.06
2023-05-14T16:25:48.409Z,12.05
2023-05-14T16:28:15.212Z,11.85
2023-05-14T16:30:41.861Z,12.00
2023-05-14T16:33:08.503Z,11.81
2023-05-14T16:35:35.209Z,11.85
2023-05-14T16:38:01.828Z,11.93
2023-05-14T16:40:28.496Z,11.91
2023-05-14T16:42:55.109Z,11.96
2023-05-14T16:45:21.953Z,12.02
2023-05-14T16:47:48.812Z,11.93
2023-05-14T16:50:15.502Z,12.07
2023-05-14T16:52:42.313Z,11.97
2023-05-14T16:55:09.421Z,12.18
2023-05-14T16:57:36.084Z,12.15
2023-05-14T17:00:06.199Z,12.35
2023-05-14T17:02:33.677Z,12.16
2023-05-14T17:05:00.575Z,12.27
2023-05-14T17:07:27.414Z,12.22
2023-05-14T17:09:54.104Z,12.18
2023-05-14T17:12:20.789Z,12.34
2023-05-14T17:14:47.432Z,12.33
2023-05-14T17:17:14.054Z,12.29
2023-05-14T17:19:41.038Z,12.29
2023-05-14T17:22:07.645Z,12.17
2023-05-14T17:24:35.557Z,12.22
2023-05-14T17:27:02.216Z,12.29
2023-05-14T17:29:28.822Z,12.25
2023-05-14T17:31:55.671Z,12.15
2023-05-14T17:34:22.335Z,12.19
2023-05-14T17:36:49.004Z,12.20
2023-05-14T17:39:16.056Z,11.92
2023-05-14T17:41:42.794Z,12.05
2023-05-14T17:44:11.320Z,12.08
2023-05-14T17:46:39.447Z,11.83
2023-05-14T17:49:06.143Z,11.79
2023-05-14T17:51:32.859Z,11.80
2023-05-14T17:53:59.695Z,11.78
2023-05-14T17:56:26.278Z,11.65
2023-05-14T17:58:52.900Z,11.67
2023-05-14T18:01:19.574Z,11.94
2023-05-14T18:03:46.222Z,12.01
2023-05-14T18:06:13.033Z,11.86
2023-05-14T18:08:39.627Z,11.80
2023-05-14T18:11:06.342Z,11.91
2023-05-14T18:13:33.012Z,12.11
2023-05-14T18:16:00.775Z,12.08
2023-05-14T18:18:27.612Z,12.09
2023-05-14T18:20:54.280Z,12.07
2023-05-14T18:23:20.971Z,11.99
2023-05-14T18:25:48.270Z,11.94
2023-05-14T18:28:15.637Z,12.04
2023-05-14T18:30:43.566Z,11.95
2023-05-14T18:33:10.520Z,11.90
2023-05-14T18:35:37.366Z,11.88
2023-05-14T18:38:04.143Z,12.08
2023-05-14T18:40:30.788Z,12.06
2023-05-14T18:42:58.123Z,11.86
2023-05-14T18:45:25.072Z,11.84
2023-05-14T18:47:52.129Z,11.74
2023-05-14T18:50:19.034Z,11.83
2023-05-14T18:52:45.636Z,11.79
2023-05-14T18:55:12.300Z,11.83
2023-05-14T18:57:39.034Z,11.77
2023-05-14T19:00:06.504Z,11.81
2023-05-14T19:02:33.211Z,11.80
2023-05-14T19:04:59.888Z,12.02
2023-05-14T19:07:27.754Z,11.96
2023-05-14T19:09:54.396Z,11.92
2023-05-14T19:12:21.053Z,11.97
2023-05-14T19:14:47.651Z,12.01
2023-05-14T19:17:14.433Z,12.01
2023-05-14T19:19:41.121Z,11.99
2023-05-14T19:22:07.885Z,12.07
2023-05-14T19:24:34.584Z,12.09
2023-05-14T19:27:01.229Z,12.18
2023-05-14T19:29:27.852Z,12.03
2023-05-14T19:31:54.487Z,12.17
2023-05-14T19:34:21.586Z,12.24
2023-05-14T19:36:48.245Z,12.43
2023-05-14T19:39:14.836Z,12.52
2023-05-14T19:41:41.681Z,12.65
2023-05-14T19:44:08.308Z,12.80
2023-05-14T19:46:35.060Z,12.72
2023-05-14T19:49:01.687Z,12.83
2023-05-14T19:51:28.330Z,12.78
2023-05-14T19:53:54.980Z,12.64
2023-05-14T19:56:23.160Z,12.73
2023-05-14T19:58:51.102Z,12.74
2023-05-14T20:01:17.847Z,12.89
2023-05-14T20:03:44.550Z,12.94
2023-05-14T20:06:11.406Z,13.03
2023-05-14T20:08:38.056Z,12.92
2023-05-14T20:11:04.783Z,12.84
2023-05-14T20:13:36.505Z,12.96
2023-05-14T20:16:03.269Z,12.90
2023-05-14T20:18:30.029Z,12.85
2023-05-14T20:20:56.768Z,12.70
2023-05-14T20:23:23.373Z,12.79
2023-05-14T20:25:51.344Z,12.75
2023-05-14T20:28:18.037Z,12.80
2023-05-14T20:30:44.699Z,12.98
2023-05-14T20:33:12.969Z,13.05
2023-05-14T20:35:41.622Z,13.09
2023-05-14T20:38:08.236Z,13.11
2023-05-14T20:40:34.877Z,13.14
2023-05-14T20:43:01.926Z,13.04
2023-05-14T20:45:28.521Z,12.97
2023-05-14T20:47:55.266Z,12.96
2023-05-14T20:50:22.717Z,13.11
2023-05-14T20:52:49.346Z,13.14
2023-05-14T20:55:16.079Z,13.02
2023-05-14T20:57:43.594Z,12.72
2023-05-14T21:00:11.113Z,12.92
2023-05-14T21:02:37.991Z,13.08
2023-05-14T21:05:05.146Z,13.10
2023-05-14T21:07:31.820Z,13.13
2023-05-14T21:09:58.688Z,13.17
2023-05-14T21:12:25.328Z,13.15
2023-05-14T21:14:51.930Z,13.19
2023-05-14T21:17:18.568Z,13.16
2023-05-14T21:19:45.204Z,13.21
2023-05-14T21:22:12.799Z,13.21
2023-05-14T21:24:39.413Z,13.23
2023-05-14T21:27:06.184Z,13.24
2023-05-14T21:29:32.776Z,13.27
2023-05-14T21:31:59.451Z,13.25
2023-05-14T21:34:26.156Z,13.17
2023-05-14T21:36:53.040Z,13.23
2023-05-14T21:39:20.037Z,13.19
2023-05-14T21:41:46.660Z,13.22
2023-05-14T21:44:13.271Z,13.26
2023-05-14T21:46:39.999Z,13.26
2023-05-14T21:49:07.092Z,13.23
2023-05-14T21:51:33.763Z,13.27
2023-05-14T21:54:00.452Z,13.19
2023-05-14T21:56:27.386Z,13.21
2023-05-14T21:58:56.105Z,13.15
2023-05-14T22:01:23.178Z,13.25
2023-05-14T22:03:50.028Z,13.27
2023-05-14T22:06:16.787Z,13.24
2023-05-14T22:08:43.492Z,13.23
2023-05-14T22:11:10.115Z,13.26
2023-05-14T22:13:40.891Z,13.29
2023-05-14T22:16:13.734Z,13.21
2023-05-14T22:18:40.741Z,13.53
2023-05-14T22:21:07.427Z,13.30
2023-05-14T22:23:34.268Z,13.26
2023-05-14T22:26:01.012Z,13.26
2023-05-14T22:28:27.649Z,13.24
2023-05-14T22:30:54.441Z,13.22
2023-05-14T22:33:21.145Z,13.26
2023-05-14T22:35:47.787Z,13.29
2023-05-14T22:38:14.409Z,13.27
2023-05-14T22:40:41.025Z,13.16
2023-05-14T22:43:07.676Z,13.14
2023-05-14T22:45:34.317Z,13.09
2023-05-14T22:48:00.938Z,13.01
2023-05-14T22:50:27.600Z,13.02
2023-05-14T22:52:54.204Z,13.14
2023-05-14T22:55:21.222Z,13.17
2023-05-14T22:57:47.986Z,13.18
2023-05-14T23:00:15.349Z,13.19
2023-05-14T23:02:42.119Z,13.19
2023-05-14T23:05:09.322Z,13.21
2023-05-14T23:07:36.040Z,13.18
2023-05-14T23:10:02.764Z,13.14
2023-05-14T23:12:29.449Z,13.16
2023-05-14T23:14:56.117Z,12.90
2023-05-14T23:17:22.851Z,13.00
2023-05-14T23:19:49.714Z,13.02
2023-05-14T23:22:16.457Z,13.06
2023-05-14T23:24:43.159Z,12.99
2023-05-14T23:27:11.421Z,12.84
2023-05-14T23:29:38.525Z,12.94
2023-05-14T23:32:05.585Z,13.06
2023-05-14T23:34:33.113Z,13.11
2023-05-14T23:36:59.850Z,13.06
2023-05-14T23:39:26.585Z,13.07
2023-05-14T23:41:53.193Z,13.09
2023-05-14T23:44:19.845Z,13.11
2023-05-14T23:46:46.584Z,13.10
2023-05-14T23:49:13.220Z,13.13
2023-05-14T23:51:39.812Z,12.98
2023-05-14T23:54:06.465Z,13.03
2023-05-14T23:56:33.701Z,12.98
2023-05-14T23:59:00.458Z,13.01
